TOM23 EGPH-EDDH
Flight info
| Callsign | TOM23 |
|---|---|
| Flight time | 1h 36m |
| Altitude | 41000 |
| Route | TLA6C TLA Y96 AGPED DCT ERKIT N110 DOLAS L603 LAMSO DCT VALAM DCT GASTU DCT OSTOR T904 RIBSO RIBSO3P |
| Aircraft | A339/M-V/N |
Departure
| Time | 2026-05-04 21:44 |
|---|---|
| Airport | Edinburgh Airport (EGPH) |
Arrival
| Time | 2026-05-04 23:21 |
|---|---|
| Airport | Hamburg Helmut Schmidt Airport (EDDH) |
| Time | Latitude | Longitude | Altitude | Speed | Heading |
|---|---|---|---|---|---|
| 2026-05-04 21:23 | 55.95020 | -3.36071 | 115 ft | 0 kts | 248° |
| 2026-05-04 21:34 | 55.95022 | -3.36064 | 115 ft | 1 kts | 248° |
| 2026-05-04 21:35 | 55.95024 | -3.36054 | 111 ft | 1 kts | 248° |
| 2026-05-04 21:35 | 55.95027 | -3.36041 | 110 ft | 2 kts | 248° |
| 2026-05-04 21:35 | 55.95032 | -3.36018 | 110 ft | 2 kts | 249° |
| 2026-05-04 21:35 | 55.95037 | -3.35994 | 110 ft | 2 kts | 249° |
| 2026-05-04 21:36 | 55.95044 | -3.35963 | 110 ft | 3 kts | 249° |
| 2026-05-04 21:36 | 55.95052 | -3.35929 | 110 ft | 3 kts | 245° |
| 2026-05-04 21:36 | 55.95057 | -3.35909 | 110 ft | 2 kts | 255° |
| 2026-05-04 21:36 | 55.95061 | -3.35884 | 110 ft | 2 kts | 274° |
| 2026-05-04 21:37 | 55.95061 | -3.35867 | 110 ft | 0 kts | 288° |
| 2026-05-04 21:39 | 55.95065 | -3.35888 | 111 ft | 3 kts | 289° |
| 2026-05-04 21:39 | 55.95079 | -3.35940 | 113 ft | 6 kts | 295° |
| 2026-05-04 21:40 | 55.95099 | -3.36031 | 111 ft | 9 kts | 290° |
| 2026-05-04 21:40 | 55.95133 | -3.36152 | 111 ft | 12 kts | 311° |
| 2026-05-04 21:40 | 55.95176 | -3.36146 | 110 ft | 6 kts | 32° |
| 2026-05-04 21:40 | 55.95209 | -3.36058 | 111 ft | 12 kts | 59° |
| 2026-05-04 21:41 | 55.95259 | -3.35907 | 110 ft | 16 kts | 59° |
| 2026-05-04 21:41 | 55.95320 | -3.35727 | 111 ft | 19 kts | 59° |
| 2026-05-04 21:41 | 55.95390 | -3.35523 | 114 ft | 20 kts | 59° |
| 2026-05-04 21:41 | 55.95471 | -3.35418 | 113 ft | 13 kts | 354° |
| 2026-05-04 21:42 | 55.95499 | -3.35441 | 111 ft | 0 kts | 332° |
| 2026-05-04 21:42 | 55.95503 | -3.35446 | 111 ft | 3 kts | 332° |
| 2026-05-04 21:42 | 55.95551 | -3.35512 | 110 ft | 15 kts | 306° |
| 2026-05-04 21:43 | 55.95531 | -3.35678 | 113 ft | 0 kts | 241° |
| 2026-05-04 21:43 | 55.95526 | -3.35695 | 112 ft | 8 kts | 240° |
| 2026-05-04 21:44 | 55.95366 | -3.36166 | 110 ft | 86 kts | 238° |
| 2026-05-04 21:44 | 55.94928 | -3.37454 | 116 ft | 151 kts | 238° |
| 2026-05-04 21:44 | 55.94320 | -3.39158 | 491 ft | 169 kts | 238° |
| 2026-05-04 21:44 | 55.93687 | -3.40983 | 1201 ft | 174 kts | 240° |
| 2026-05-04 21:45 | 55.93027 | -3.42797 | 1886 ft | 173 kts | 240° |
| 2026-05-04 21:45 | 55.92362 | -3.44555 | 2525 ft | 174 kts | 239° |
| 2026-05-04 21:45 | 55.91659 | -3.46361 | 3189 ft | 179 kts | 238° |
| 2026-05-04 21:45 | 55.90922 | -3.48210 | 3878 ft | 186 kts | 237° |
| 2026-05-04 21:46 | 55.90218 | -3.50273 | 4368 ft | 205 kts | 244° |
| 2026-05-04 21:46 | 55.89527 | -3.52654 | 4835 ft | 227 kts | 243° |
| 2026-05-04 21:46 | 55.88398 | -3.54817 | 5210 ft | 251 kts | 216° |
| 2026-05-04 21:46 | 55.86734 | -3.55882 | 5795 ft | 261 kts | 188° |
| 2026-05-04 21:47 | 55.84913 | -3.55556 | 6346 ft | 274 kts | 165° |
| 2026-05-04 21:47 | 55.83098 | -3.54261 | 6820 ft | 282 kts | 156° |
| 2026-05-04 21:47 | 55.81319 | -3.52815 | 6997 ft | 283 kts | 157° |
| 2026-05-04 21:47 | 55.79491 | -3.51484 | 7042 ft | 284 kts | 160° |
| 2026-05-04 21:48 | 55.77649 | -3.50309 | 7043 ft | 283 kts | 162° |
| 2026-05-04 21:48 | 55.75773 | -3.49224 | 7041 ft | 282 kts | 164° |
| 2026-05-04 21:48 | 55.73899 | -3.48196 | 7045 ft | 282 kts | 165° |
| 2026-05-04 21:48 | 55.72008 | -3.47181 | 7044 ft | 282 kts | 165° |
| 2026-05-04 21:49 | 55.70148 | -3.46183 | 7042 ft | 283 kts | 165° |
| 2026-05-04 21:49 | 55.68264 | -3.45171 | 7043 ft | 283 kts | 165° |
| 2026-05-04 21:49 | 55.66371 | -3.44149 | 7045 ft | 283 kts | 165° |
| 2026-05-04 21:49 | 55.64497 | -3.43136 | 7042 ft | 283 kts | 165° |
| 2026-05-04 21:50 | 55.62623 | -3.42124 | 7042 ft | 282 kts | 165° |
| 2026-05-04 21:50 | 55.60729 | -3.41100 | 7048 ft | 283 kts | 165° |
| 2026-05-04 21:50 | 55.58865 | -3.40093 | 7046 ft | 282 kts | 165° |
| 2026-05-04 21:50 | 55.56992 | -3.39082 | 7046 ft | 282 kts | 165° |
| 2026-05-04 21:51 | 55.55094 | -3.38059 | 7044 ft | 282 kts | 165° |
| 2026-05-04 21:51 | 55.53227 | -3.37048 | 7041 ft | 282 kts | 165° |
| 2026-05-04 21:51 | 55.51389 | -3.35889 | 7041 ft | 283 kts | 153° |
| 2026-05-04 21:51 | 55.49885 | -3.33683 | 7049 ft | 285 kts | 129° |
| 2026-05-04 21:52 | 55.49010 | -3.30542 | 7053 ft | 286 kts | 105° |
| 2026-05-04 21:52 | 55.48668 | -3.27094 | 7043 ft | 286 kts | 96° |
| 2026-05-04 21:52 | 55.48468 | -3.23633 | 7043 ft | 285 kts | 95° |
| 2026-05-04 21:52 | 55.48242 | -3.20152 | 7043 ft | 285 kts | 97° |
| 2026-05-04 21:53 | 55.48055 | -3.17842 | 7039 ft | 285 kts | 98° |
| 2026-05-04 21:53 | 55.47614 | -3.13255 | 7046 ft | 285 kts | 99° |
| 2026-05-04 21:53 | 55.47372 | -3.10955 | 7043 ft | 286 kts | 100° |
| 2026-05-04 21:53 | 55.47002 | -3.07528 | 7045 ft | 285 kts | 100° |
| 2026-05-04 21:54 | 55.46621 | -3.04066 | 7045 ft | 285 kts | 100° |
| 2026-05-04 21:54 | 55.46206 | -3.00667 | 7045 ft | 285 kts | 105° |
| 2026-05-04 21:54 | 55.45487 | -2.97438 | 7046 ft | 285 kts | 117° |
| 2026-05-04 21:54 | 55.44491 | -2.94383 | 7046 ft | 285 kts | 121° |
| 2026-05-04 21:55 | 55.43504 | -2.91382 | 7044 ft | 286 kts | 120° |
| 2026-05-04 21:55 | 55.42518 | -2.88328 | 7353 ft | 291 kts | 120° |
| 2026-05-04 21:55 | 55.41517 | -2.85199 | 8206 ft | 291 kts | 120° |
| 2026-05-04 21:55 | 55.40525 | -2.82091 | 8927 ft | 297 kts | 120° |
| 2026-05-04 21:56 | 55.39662 | -2.79388 | 9564 ft | 302 kts | 120° |
| 2026-05-04 21:56 | 55.38618 | -2.76120 | 10304 ft | 307 kts | 120° |
| 2026-05-04 21:56 | 55.37541 | -2.72758 | 10586 ft | 328 kts | 120° |
| 2026-05-04 21:56 | 55.36388 | -2.69166 | 10822 ft | 349 kts | 120° |
| 2026-05-04 21:57 | 55.35183 | -2.65415 | 11368 ft | 356 kts | 120° |
| 2026-05-04 21:57 | 55.33948 | -2.61573 | 12072 ft | 359 kts | 121° |
| 2026-05-04 21:57 | 55.32721 | -2.57759 | 12750 ft | 363 kts | 121° |
| 2026-05-04 21:57 | 55.31465 | -2.53861 | 13420 ft | 367 kts | 121° |
| 2026-05-04 21:58 | 55.30210 | -2.49973 | 14072 ft | 371 kts | 121° |
| 2026-05-04 21:58 | 55.28918 | -2.45982 | 14697 ft | 374 kts | 121° |
| 2026-05-04 21:58 | 55.27629 | -2.42006 | 15307 ft | 377 kts | 121° |
| 2026-05-04 21:58 | 55.26326 | -2.37999 | 15921 ft | 380 kts | 121° |
| 2026-05-04 21:59 | 55.25018 | -2.33978 | 16534 ft | 383 kts | 121° |
| 2026-05-04 21:59 | 55.23698 | -2.29929 | 17143 ft | 386 kts | 121° |
| 2026-05-04 21:59 | 55.22343 | -2.25780 | 17743 ft | 390 kts | 121° |
| 2026-05-04 21:59 | 55.20998 | -2.21669 | 18347 ft | 393 kts | 121° |
| 2026-05-04 22:00 | 55.19624 | -2.17475 | 18887 ft | 396 kts | 121° |
| 2026-05-04 22:00 | 55.18265 | -2.13336 | 19402 ft | 399 kts | 121° |
| 2026-05-04 22:00 | 55.16873 | -2.09104 | 19936 ft | 402 kts | 121° |
| 2026-05-04 22:00 | 55.15461 | -2.04816 | 20449 ft | 406 kts | 121° |
| 2026-05-04 22:01 | 55.14059 | -2.00570 | 20977 ft | 409 kts | 122° |
| 2026-05-04 22:01 | 55.12424 | -1.96498 | 21472 ft | 411 kts | 133° |
| 2026-05-04 22:01 | 55.10363 | -1.93074 | 22016 ft | 410 kts | 144° |
| 2026-05-04 22:01 | 55.07948 | -1.90345 | 22518 ft | 412 kts | 152° |
| 2026-05-04 22:02 | 55.05470 | -1.87802 | 23037 ft | 416 kts | 152° |
| 2026-05-04 22:02 | 55.02990 | -1.85225 | 23565 ft | 420 kts | 152° |
| 2026-05-04 22:02 | 55.00453 | -1.82569 | 24029 ft | 423 kts | 151° |
| 2026-05-04 22:02 | 54.97926 | -1.79917 | 24514 ft | 425 kts | 151° |
| 2026-05-04 22:03 | 54.95403 | -1.77271 | 24981 ft | 428 kts | 151° |
| 2026-05-04 22:03 | 54.92828 | -1.74578 | 25447 ft | 431 kts | 150° |
| 2026-05-04 22:03 | 54.90274 | -1.71910 | 25875 ft | 435 kts | 151° |
| 2026-05-04 22:03 | 54.87675 | -1.69196 | 26348 ft | 437 kts | 151° |
| 2026-05-04 22:04 | 54.85050 | -1.66461 | 26799 ft | 440 kts | 151° |
| 2026-05-04 22:04 | 54.82427 | -1.63731 | 27274 ft | 442 kts | 151° |
| 2026-05-04 22:04 | 54.79760 | -1.60960 | 27739 ft | 445 kts | 151° |
| 2026-05-04 22:04 | 54.77109 | -1.58210 | 28177 ft | 447 kts | 151° |
| 2026-05-04 22:05 | 54.74414 | -1.55418 | 28612 ft | 450 kts | 150° |
| 2026-05-04 22:05 | 54.71733 | -1.52648 | 29053 ft | 452 kts | 150° |
| 2026-05-04 22:05 | 54.69027 | -1.49855 | 29462 ft | 455 kts | 150° |
| 2026-05-04 22:05 | 54.66305 | -1.47049 | 29878 ft | 457 kts | 150° |
| 2026-05-04 22:06 | 54.63545 | -1.44208 | 30268 ft | 460 kts | 150° |
| 2026-05-04 22:06 | 54.60810 | -1.41398 | 30649 ft | 462 kts | 150° |
| 2026-05-04 22:06 | 54.58051 | -1.38567 | 31021 ft | 464 kts | 150° |
| 2026-05-04 22:06 | 54.55248 | -1.35697 | 31381 ft | 467 kts | 150° |
| 2026-05-04 22:07 | 54.52462 | -1.32849 | 31740 ft | 470 kts | 150° |
| 2026-05-04 22:07 | 54.49618 | -1.29945 | 32094 ft | 472 kts | 150° |
| 2026-05-04 22:07 | 54.46816 | -1.27089 | 32417 ft | 475 kts | 150° |
| 2026-05-04 22:07 | 54.43964 | -1.24186 | 32730 ft | 477 kts | 150° |
| 2026-05-04 22:08 | 54.41083 | -1.21259 | 33006 ft | 479 kts | 150° |
| 2026-05-04 22:08 | 54.38223 | -1.18359 | 33248 ft | 481 kts | 150° |
| 2026-05-04 22:08 | 54.35318 | -1.15417 | 33466 ft | 482 kts | 150° |
| 2026-05-04 22:08 | 54.32452 | -1.12520 | 33692 ft | 483 kts | 150° |
| 2026-05-04 22:09 | 54.29531 | -1.09572 | 33939 ft | 483 kts | 150° |
| 2026-05-04 22:09 | 54.26645 | -1.06663 | 34180 ft | 482 kts | 150° |
| 2026-05-04 22:09 | 54.23770 | -1.03771 | 34435 ft | 481 kts | 150° |
| 2026-05-04 22:09 | 54.20906 | -1.00896 | 34679 ft | 480 kts | 150° |
| 2026-05-04 22:10 | 54.18017 | -0.97999 | 34927 ft | 479 kts | 150° |
| 2026-05-04 22:10 | 54.15151 | -0.95129 | 35169 ft | 478 kts | 150° |
| 2026-05-04 22:10 | 54.12301 | -0.92279 | 35391 ft | 477 kts | 150° |
| 2026-05-04 22:10 | 54.09422 | -0.89407 | 35615 ft | 477 kts | 150° |
| 2026-05-04 22:11 | 54.06563 | -0.86557 | 35851 ft | 476 kts | 150° |
| 2026-05-04 22:11 | 54.03691 | -0.83699 | 36070 ft | 475 kts | 150° |
| 2026-05-04 22:11 | 54.00935 | -0.80657 | 36259 ft | 475 kts | 146° |
| 2026-05-04 22:11 | 53.98221 | -0.77449 | 36476 ft | 475 kts | 146° |
| 2026-05-04 22:12 | 53.95525 | -0.74255 | 36693 ft | 475 kts | 146° |
| 2026-05-04 22:12 | 53.92823 | -0.71068 | 36903 ft | 475 kts | 146° |
| 2026-05-04 22:12 | 53.90091 | -0.67862 | 37112 ft | 475 kts | 146° |
| 2026-05-04 22:12 | 53.87382 | -0.64694 | 37308 ft | 474 kts | 146° |
| 2026-05-04 22:13 | 53.84656 | -0.61516 | 37536 ft | 474 kts | 146° |
| 2026-05-04 22:13 | 53.81943 | -0.58358 | 37741 ft | 474 kts | 146° |
| 2026-05-04 22:13 | 53.79215 | -0.55188 | 37939 ft | 474 kts | 146° |
| 2026-05-04 22:13 | 53.76513 | -0.52054 | 38124 ft | 474 kts | 146° |
| 2026-05-04 22:14 | 53.73799 | -0.48910 | 38328 ft | 473 kts | 146° |
| 2026-05-04 22:14 | 53.71095 | -0.45783 | 38519 ft | 473 kts | 147° |
| 2026-05-04 22:14 | 53.68363 | -0.42629 | 38696 ft | 473 kts | 147° |
| 2026-05-04 22:14 | 53.65638 | -0.39487 | 38847 ft | 473 kts | 147° |
| 2026-05-04 22:15 | 53.62932 | -0.36362 | 38987 ft | 473 kts | 146° |
| 2026-05-04 22:15 | 53.60289 | -0.32990 | 39118 ft | 474 kts | 141° |
| 2026-05-04 22:15 | 53.57828 | -0.29315 | 39245 ft | 475 kts | 137° |
| 2026-05-04 22:15 | 53.55524 | -0.25299 | 39396 ft | 476 kts | 133° |
| 2026-05-04 22:16 | 53.53412 | -0.21010 | 39509 ft | 477 kts | 128° |
| 2026-05-04 22:16 | 53.51453 | -0.16574 | 39638 ft | 477 kts | 127° |
| 2026-05-04 22:16 | 53.49456 | -0.12044 | 39767 ft | 478 kts | 128° |
| 2026-05-04 22:16 | 53.47469 | -0.07582 | 39891 ft | 478 kts | 128° |
| 2026-05-04 22:17 | 53.45478 | -0.03148 | 40023 ft | 478 kts | 128° |
| 2026-05-04 22:17 | 53.43461 | 0.01320 | 40149 ft | 478 kts | 128° |
| 2026-05-04 22:17 | 53.41465 | 0.05726 | 40278 ft | 478 kts | 128° |
| 2026-05-04 22:17 | 53.39439 | 0.10187 | 40406 ft | 478 kts | 128° |
| 2026-05-04 22:18 | 53.37421 | 0.14626 | 40536 ft | 478 kts | 128° |
| 2026-05-04 22:18 | 53.35423 | 0.19013 | 40659 ft | 478 kts | 128° |
| 2026-05-04 22:18 | 53.33400 | 0.23449 | 40782 ft | 478 kts | 128° |
| 2026-05-04 22:18 | 53.31397 | 0.27832 | 40900 ft | 478 kts | 128° |
| 2026-05-04 22:19 | 53.29365 | 0.32271 | 41016 ft | 478 kts | 128° |
| 2026-05-04 22:19 | 53.25310 | 0.41105 | 41041 ft | 478 kts | 129° |
| 2026-05-04 22:20 | 53.21284 | 0.49846 | 41057 ft | 477 kts | 129° |
| 2026-05-04 22:20 | 53.17220 | 0.58639 | 41062 ft | 477 kts | 129° |
| 2026-05-04 22:21 | 53.13156 | 0.67400 | 41062 ft | 477 kts | 129° |
| 2026-05-04 22:21 | 53.09103 | 0.76109 | 41056 ft | 477 kts | 129° |
| 2026-05-04 22:22 | 53.05029 | 0.84829 | 41055 ft | 477 kts | 129° |
| 2026-05-04 22:22 | 53.01037 | 0.93644 | 41055 ft | 478 kts | 124° |
| 2026-05-04 22:23 | 52.98106 | 1.02966 | 41052 ft | 481 kts | 112° |
| 2026-05-04 22:23 | 52.96242 | 1.13613 | 41051 ft | 483 kts | 101° |
| 2026-05-04 22:24 | 52.95027 | 1.24615 | 41049 ft | 483 kts | 102° |
| 2026-05-04 22:24 | 52.94187 | 1.31924 | 41054 ft | 483 kts | 102° |
| 2026-05-04 22:25 | 52.92471 | 1.46505 | 41052 ft | 483 kts | 102° |
| 2026-05-04 22:25 | 52.91172 | 1.57422 | 41053 ft | 484 kts | 102° |
| 2026-05-04 22:26 | 52.89865 | 1.68326 | 41051 ft | 484 kts | 102° |
| 2026-05-04 22:26 | 52.88540 | 1.79290 | 41050 ft | 484 kts | 102° |
| 2026-05-04 22:27 | 52.87208 | 1.90215 | 41049 ft | 484 kts | 103° |
| 2026-05-04 22:27 | 52.85868 | 2.01127 | 41047 ft | 485 kts | 103° |
| 2026-05-04 22:28 | 52.84520 | 2.12007 | 41043 ft | 485 kts | 103° |
| 2026-05-04 22:28 | 52.83156 | 2.22932 | 41042 ft | 485 kts | 103° |
| 2026-05-04 22:29 | 52.81782 | 2.33852 | 41042 ft | 485 kts | 103° |
| 2026-05-04 22:29 | 52.80400 | 2.44746 | 41035 ft | 485 kts | 103° |
| 2026-05-04 22:30 | 52.79007 | 2.55658 | 41038 ft | 485 kts | 103° |
| 2026-05-04 22:30 | 52.77605 | 2.66528 | 41040 ft | 485 kts | 103° |
| 2026-05-04 22:31 | 52.76188 | 2.77427 | 41039 ft | 485 kts | 103° |
| 2026-05-04 22:31 | 52.74776 | 2.88300 | 41031 ft | 485 kts | 102° |
| 2026-05-04 22:32 | 52.74135 | 2.99389 | 41036 ft | 488 kts | 91° |
| 2026-05-04 22:32 | 52.74763 | 3.10497 | 41037 ft | 490 kts | 80° |
| 2026-05-04 22:33 | 52.76265 | 3.21520 | 41036 ft | 490 kts | 78° |
| 2026-05-04 22:33 | 52.77740 | 3.32500 | 41037 ft | 490 kts | 78° |
| 2026-05-04 22:34 | 52.79193 | 3.43500 | 41041 ft | 490 kts | 78° |
| 2026-05-04 22:34 | 52.80636 | 3.54505 | 41042 ft | 490 kts | 78° |
| 2026-05-04 22:35 | 52.82070 | 3.65519 | 41037 ft | 490 kts | 79° |
| 2026-05-04 22:35 | 52.83492 | 3.76533 | 41035 ft | 491 kts | 79° |
| 2026-05-04 22:36 | 52.84910 | 3.87599 | 41037 ft | 491 kts | 79° |
| 2026-05-04 22:36 | 52.86310 | 3.98607 | 41034 ft | 491 kts | 79° |
| 2026-05-04 22:37 | 52.87705 | 4.09668 | 41021 ft | 491 kts | 79° |
| 2026-05-04 22:37 | 52.89096 | 4.20788 | 41015 ft | 492 kts | 79° |
| 2026-05-04 22:38 | 52.90472 | 4.31870 | 41011 ft | 491 kts | 79° |
| 2026-05-04 22:38 | 52.91829 | 4.42895 | 41015 ft | 492 kts | 79° |
| 2026-05-04 22:39 | 52.93194 | 4.54076 | 41020 ft | 492 kts | 79° |
| 2026-05-04 22:39 | 52.94538 | 4.65177 | 41025 ft | 492 kts | 79° |
| 2026-05-04 22:40 | 52.95811 | 4.75772 | 41017 ft | 492 kts | 80° |
| 2026-05-04 22:40 | 52.97142 | 4.86950 | 41023 ft | 492 kts | 80° |
| 2026-05-04 22:41 | 52.98455 | 4.98063 | 41021 ft | 492 kts | 80° |
| 2026-05-04 22:41 | 52.99757 | 5.09184 | 41021 ft | 492 kts | 80° |
| 2026-05-04 22:42 | 53.01053 | 5.20354 | 41018 ft | 492 kts | 80° |
| 2026-05-04 22:42 | 53.02336 | 5.31503 | 41019 ft | 493 kts | 80° |
| 2026-05-04 22:43 | 53.04073 | 5.42507 | 41026 ft | 494 kts | 71° |
| 2026-05-04 22:43 | 53.06653 | 5.53132 | 41024 ft | 495 kts | 69° |
| 2026-05-04 22:44 | 53.08805 | 5.62005 | 41026 ft | 495 kts | 69° |
| 2026-05-04 22:44 | 53.11363 | 5.72624 | 41021 ft | 495 kts | 69° |
| 2026-05-04 22:45 | 53.13905 | 5.83227 | 41023 ft | 495 kts | 69° |
| 2026-05-04 22:45 | 53.17721 | 5.99229 | 41019 ft | 495 kts | 69° |
| 2026-05-04 22:46 | 53.20247 | 6.09886 | 41014 ft | 495 kts | 69° |
| 2026-05-04 22:46 | 53.22763 | 6.20559 | 41023 ft | 495 kts | 69° |
| 2026-05-04 22:47 | 53.25274 | 6.31261 | 41017 ft | 496 kts | 69° |
| 2026-05-04 22:47 | 53.27793 | 6.42049 | 41016 ft | 496 kts | 69° |
| 2026-05-04 22:48 | 53.30283 | 6.52770 | 41020 ft | 496 kts | 70° |
| 2026-05-04 22:48 | 53.32775 | 6.63551 | 41021 ft | 496 kts | 70° |
| 2026-05-04 22:49 | 53.35239 | 6.74265 | 41015 ft | 496 kts | 70° |
| 2026-05-04 22:49 | 53.37708 | 6.85059 | 41015 ft | 497 kts | 70° |
| 2026-05-04 22:50 | 53.40181 | 6.95927 | 41016 ft | 497 kts | 70° |
| 2026-05-04 22:50 | 53.42623 | 7.06710 | 41020 ft | 497 kts | 70° |
| 2026-05-04 22:51 | 53.45076 | 7.17601 | 40836 ft | 498 kts | 70° |
| 2026-05-04 22:51 | 53.46287 | 7.22996 | 40599 ft | 497 kts | 70° |
| 2026-05-04 22:51 | 53.47505 | 7.28436 | 40357 ft | 497 kts | 70° |
| 2026-05-04 22:52 | 53.48716 | 7.33862 | 40112 ft | 498 kts | 70° |
| 2026-05-04 22:52 | 53.49936 | 7.39340 | 39842 ft | 498 kts | 70° |
| 2026-05-04 22:52 | 53.51149 | 7.44799 | 39268 ft | 501 kts | 71° |
| 2026-05-04 22:52 | 53.52362 | 7.50276 | 38361 ft | 505 kts | 71° |
| 2026-05-04 22:53 | 53.53597 | 7.55860 | 37132 ft | 510 kts | 71° |
| 2026-05-04 22:53 | 53.54834 | 7.61468 | 35945 ft | 513 kts | 72° |
| 2026-05-04 22:53 | 53.56063 | 7.67055 | 35015 ft | 511 kts | 72° |
| 2026-05-04 22:53 | 53.57309 | 7.72736 | 33753 ft | 517 kts | 72° |
| 2026-05-04 22:54 | 53.58538 | 7.78373 | 32563 ft | 517 kts | 72° |
| 2026-05-04 22:54 | 53.59774 | 7.84055 | 31377 ft | 517 kts | 72° |
| 2026-05-04 22:54 | 53.61018 | 7.89785 | 30501 ft | 512 kts | 72° |
| 2026-05-04 22:54 | 53.62232 | 7.95379 | 29901 ft | 504 kts | 72° |
| 2026-05-04 22:55 | 53.63409 | 8.00882 | 29176 ft | 497 kts | 74° |
| 2026-05-04 22:55 | 53.64422 | 8.06356 | 28467 ft | 491 kts | 75° |
| 2026-05-04 22:55 | 53.65471 | 8.11841 | 27745 ft | 485 kts | 74° |
| 2026-05-04 22:55 | 53.66508 | 8.17189 | 27028 ft | 480 kts | 74° |
| 2026-05-04 22:56 | 53.67539 | 8.22528 | 26337 ft | 475 kts | 74° |
| 2026-05-04 22:56 | 53.68545 | 8.27782 | 25649 ft | 471 kts | 74° |
| 2026-05-04 22:56 | 53.69543 | 8.33032 | 24929 ft | 467 kts | 74° |
| 2026-05-04 22:56 | 53.70534 | 8.38274 | 24254 ft | 462 kts | 74° |
| 2026-05-04 22:57 | 53.71498 | 8.43397 | 23528 ft | 460 kts | 73° |
| 2026-05-04 22:57 | 53.72463 | 8.48527 | 22828 ft | 453 kts | 74° |
| 2026-05-04 22:57 | 53.73397 | 8.53507 | 22172 ft | 446 kts | 74° |
| 2026-05-04 22:57 | 53.74322 | 8.58454 | 21507 ft | 439 kts | 74° |
| 2026-05-04 22:58 | 53.75238 | 8.63370 | 20838 ft | 433 kts | 74° |
| 2026-05-04 22:58 | 53.76129 | 8.68164 | 20185 ft | 427 kts | 74° |
| 2026-05-04 22:58 | 53.77011 | 8.72927 | 19508 ft | 422 kts | 74° |
| 2026-05-04 22:58 | 53.77891 | 8.77691 | 18865 ft | 416 kts | 74° |
| 2026-05-04 22:59 | 53.78739 | 8.82288 | 18188 ft | 412 kts | 73° |
| 2026-05-04 22:59 | 53.79585 | 8.86885 | 17541 ft | 404 kts | 73° |
| 2026-05-04 22:59 | 53.80413 | 8.91396 | 16920 ft | 397 kts | 73° |
| 2026-05-04 22:59 | 53.81214 | 8.95772 | 16298 ft | 390 kts | 73° |
| 2026-05-04 23:00 | 53.82013 | 9.00149 | 15686 ft | 384 kts | 74° |
| 2026-05-04 23:00 | 53.82593 | 9.04529 | 15065 ft | 377 kts | 84° |
| 2026-05-04 23:00 | 53.82737 | 9.08890 | 14498 ft | 370 kts | 94° |
| 2026-05-04 23:00 | 53.82505 | 9.13261 | 13885 ft | 384 kts | 99° |
| 2026-05-04 23:01 | 53.82204 | 9.17871 | 13403 ft | 393 kts | 98° |
| 2026-05-04 23:01 | 53.81928 | 9.22464 | 12663 ft | 395 kts | 98° |
| 2026-05-04 23:01 | 53.81659 | 9.27112 | 11900 ft | 393 kts | 98° |
| 2026-05-04 23:01 | 53.81425 | 9.31623 | 11331 ft | 381 kts | 95° |
| 2026-05-04 23:02 | 53.81527 | 9.36031 | 10756 ft | 373 kts | 85° |
| 2026-05-04 23:02 | 53.82013 | 9.40279 | 10547 ft | 358 kts | 78° |
| 2026-05-04 23:02 | 53.82527 | 9.44264 | 10373 ft | 339 kts | 79° |
| 2026-05-04 23:02 | 53.83000 | 9.48089 | 10099 ft | 323 kts | 80° |
| 2026-05-04 23:03 | 53.83445 | 9.51777 | 9590 ft | 317 kts | 80° |
| 2026-05-04 23:03 | 53.83876 | 9.55383 | 9346 ft | 310 kts | 80° |
| 2026-05-04 23:03 | 53.84302 | 9.58967 | 9259 ft | 314 kts | 80° |
| 2026-05-04 23:03 | 53.84737 | 9.62608 | 9172 ft | 313 kts | 80° |
| 2026-05-04 23:04 | 53.85166 | 9.66201 | 9084 ft | 313 kts | 80° |
| 2026-05-04 23:04 | 53.85598 | 9.69826 | 9009 ft | 311 kts | 80° |
| 2026-05-04 23:04 | 53.86021 | 9.73380 | 8929 ft | 300 kts | 80° |
| 2026-05-04 23:04 | 53.86424 | 9.76770 | 8764 ft | 284 kts | 80° |
| 2026-05-04 23:05 | 53.86694 | 9.79994 | 8366 ft | 272 kts | 90° |
| 2026-05-04 23:05 | 53.86553 | 9.83181 | 8257 ft | 273 kts | 102° |
| 2026-05-04 23:05 | 53.86298 | 9.86331 | 8181 ft | 272 kts | 101° |
| 2026-05-04 23:05 | 53.86057 | 9.89537 | 8106 ft | 272 kts | 100° |
| 2026-05-04 23:06 | 53.85832 | 9.92689 | 8029 ft | 272 kts | 100° |
| 2026-05-04 23:06 | 53.85607 | 9.95892 | 7958 ft | 271 kts | 100° |
| 2026-05-04 23:06 | 53.85385 | 9.99048 | 7884 ft | 271 kts | 100° |
| 2026-05-04 23:06 | 53.85161 | 10.02212 | 7802 ft | 271 kts | 100° |
| 2026-05-04 23:07 | 53.84935 | 10.05392 | 7658 ft | 271 kts | 100° |
| 2026-05-04 23:07 | 53.84711 | 10.08537 | 7518 ft | 270 kts | 100° |
| 2026-05-04 23:07 | 53.84484 | 10.11703 | 7367 ft | 269 kts | 100° |
| 2026-05-04 23:07 | 53.84258 | 10.14823 | 7222 ft | 269 kts | 100° |
| 2026-05-04 23:08 | 53.84083 | 10.17993 | 7067 ft | 270 kts | 90° |
| 2026-05-04 23:08 | 53.84527 | 10.21039 | 6930 ft | 271 kts | 63° |
| 2026-05-04 23:08 | 53.85608 | 10.23654 | 6793 ft | 269 kts | 46° |
| 2026-05-04 23:08 | 53.86896 | 10.25957 | 6641 ft | 268 kts | 42° |
| 2026-05-04 23:09 | 53.88193 | 10.28204 | 6506 ft | 267 kts | 43° |
| 2026-05-04 23:09 | 53.89451 | 10.30501 | 6352 ft | 267 kts | 45° |
| 2026-05-04 23:09 | 53.90680 | 10.32878 | 6210 ft | 266 kts | 47° |
| 2026-05-04 23:09 | 53.91865 | 10.35256 | 6076 ft | 266 kts | 47° |
| 2026-05-04 23:10 | 53.93048 | 10.37670 | 5907 ft | 264 kts | 48° |
| 2026-05-04 23:10 | 53.94213 | 10.40060 | 5797 ft | 264 kts | 48° |
| 2026-05-04 23:10 | 53.95306 | 10.42565 | 5637 ft | 265 kts | 61° |
| 2026-05-04 23:10 | 53.95781 | 10.45544 | 5516 ft | 264 kts | 89° |
| 2026-05-04 23:11 | 53.95450 | 10.48569 | 5378 ft | 257 kts | 118° |
| 2026-05-04 23:11 | 53.94408 | 10.50904 | 5280 ft | 247 kts | 147° |
| 2026-05-04 23:11 | 53.92957 | 10.52330 | 5147 ft | 239 kts | 163° |
| 2026-05-04 23:11 | 53.91359 | 10.52776 | 5033 ft | 229 kts | 188° |
| 2026-05-04 23:12 | 53.89850 | 10.52184 | 4940 ft | 220 kts | 210° |
| 2026-05-04 23:12 | 53.88612 | 10.50733 | 4825 ft | 214 kts | 226° |
| 2026-05-04 23:12 | 53.87597 | 10.48886 | 4703 ft | 213 kts | 233° |
| 2026-05-04 23:12 | 53.86666 | 10.46957 | 4588 ft | 213 kts | 233° |
| 2026-05-04 23:13 | 53.85721 | 10.45017 | 4485 ft | 212 kts | 233° |
| 2026-05-04 23:13 | 53.84787 | 10.43108 | 4360 ft | 212 kts | 233° |
| 2026-05-04 23:13 | 53.83848 | 10.41190 | 4243 ft | 212 kts | 233° |
| 2026-05-04 23:13 | 53.82904 | 10.39262 | 4127 ft | 212 kts | 233° |
| 2026-05-04 23:14 | 53.81960 | 10.37334 | 4017 ft | 211 kts | 233° |
| 2026-05-04 23:14 | 53.81025 | 10.35424 | 3890 ft | 212 kts | 233° |
| 2026-05-04 23:14 | 53.80097 | 10.33529 | 3658 ft | 208 kts | 233° |
| 2026-05-04 23:14 | 53.79173 | 10.31644 | 3495 ft | 208 kts | 233° |
| 2026-05-04 23:15 | 53.78274 | 10.29813 | 3400 ft | 196 kts | 233° |
| 2026-05-04 23:15 | 53.77439 | 10.28108 | 3168 ft | 190 kts | 233° |
| 2026-05-04 23:15 | 53.76615 | 10.26425 | 3015 ft | 189 kts | 233° |
| 2026-05-04 23:15 | 53.75764 | 10.24690 | 2993 ft | 189 kts | 233° |
| 2026-05-04 23:16 | 53.74927 | 10.22985 | 2991 ft | 190 kts | 233° |
| 2026-05-04 23:16 | 53.74089 | 10.21278 | 2999 ft | 190 kts | 233° |
| 2026-05-04 23:16 | 53.73242 | 10.19551 | 2996 ft | 190 kts | 233° |
| 2026-05-04 23:16 | 53.72414 | 10.17868 | 2879 ft | 183 kts | 233° |
| 2026-05-04 23:17 | 53.71623 | 10.16258 | 2635 ft | 176 kts | 233° |
| 2026-05-04 23:17 | 53.70854 | 10.14695 | 2400 ft | 167 kts | 233° |
| 2026-05-04 23:17 | 53.70110 | 10.13178 | 2172 ft | 171 kts | 233° |
| 2026-05-04 23:17 | 53.69354 | 10.11644 | 1935 ft | 166 kts | 234° |
| 2026-05-04 23:18 | 53.68643 | 10.10202 | 1728 ft | 152 kts | 234° |
| 2026-05-04 23:18 | 53.68009 | 10.08911 | 1521 ft | 134 kts | 233° |
| 2026-05-04 23:18 | 53.67429 | 10.07730 | 1357 ft | 135 kts | 234° |
| 2026-05-04 23:18 | 53.66852 | 10.06558 | 1165 ft | 128 kts | 233° |
| 2026-05-04 23:19 | 53.66261 | 10.05366 | 904 ft | 134 kts | 232° |
| 2026-05-04 23:19 | 53.65684 | 10.04197 | 705 ft | 132 kts | 233° |
| 2026-05-04 23:19 | 53.65071 | 10.02913 | 516 ft | 141 kts | 233° |
| 2026-05-04 23:19 | 53.64448 | 10.01674 | 334 ft | 145 kts | 234° |
| 2026-05-04 23:20 | 53.63808 | 10.00383 | 157 ft | 138 kts | 233° |
| 2026-05-04 23:20 | 53.63186 | 9.99127 | 54 ft | 143 kts | 233° |
| 2026-05-04 23:20 | 53.62623 | 9.97974 | 52 ft | 94 kts | 230° |
| 2026-05-04 23:20 | 53.62340 | 9.97400 | 51 ft | 54 kts | 230° |
| 2026-05-04 23:21 | 53.62095 | 9.96913 | 48 ft | 55 kts | 231° |
| 2026-05-04 23:21 | 53.61900 | 9.96520 | 47 ft | 19 kts | 230° |
| 2026-05-04 23:21 | 53.61759 | 9.96421 | 47 ft | 26 kts | 186° |
| 2026-05-04 23:21 | 53.61693 | 9.96447 | 46 ft | 0 kts | 148° |
| 2026-05-04 23:23 | 53.61676 | 9.96481 | 45 ft | 8 kts | 128° |
| 2026-05-04 23:23 | 53.61692 | 9.96595 | 46 ft | 14 kts | 56° |
| 2026-05-04 23:24 | 53.61767 | 9.96752 | 47 ft | 21 kts | 50° |
| 2026-05-04 23:24 | 53.61872 | 9.96964 | 47 ft | 26 kts | 50° |
| 2026-05-04 23:24 | 53.62002 | 9.97228 | 48 ft | 32 kts | 50° |
| 2026-05-04 23:24 | 53.62144 | 9.97540 | 49 ft | 36 kts | 57° |
| 2026-05-04 23:25 | 53.62319 | 9.97858 | 50 ft | 38 kts | 49° |
| 2026-05-04 23:25 | 53.62398 | 9.98012 | 49 ft | 14 kts | 49° |
| 2026-05-04 23:25 | 53.62476 | 9.98147 | 49 ft | 18 kts | 41° |
| 2026-05-04 23:25 | 53.62571 | 9.98313 | 51 ft | 21 kts | 50° |
| 2026-05-04 23:26 | 53.62671 | 9.98511 | 48 ft | 24 kts | 50° |
| 2026-05-04 23:26 | 53.62782 | 9.98735 | 45 ft | 26 kts | 50° |
| 2026-05-04 23:26 | 53.62907 | 9.98988 | 48 ft | 29 kts | 51° |
| 2026-05-04 23:26 | 53.63038 | 9.99256 | 48 ft | 31 kts | 50° |
| 2026-05-04 23:27 | 53.63168 | 9.99559 | 46 ft | 33 kts | 53° |
| 2026-05-04 23:27 | 53.63221 | 9.99722 | 52 ft | 10 kts | 88° |
| 2026-05-04 23:27 | 53.63164 | 9.99813 | 46 ft | 14 kts | 152° |
| 2026-05-04 23:27 | 53.63060 | 9.99902 | 49 ft | 20 kts | 152° |
| 2026-05-04 23:28 | 53.62949 | 10.00057 | 46 ft | 19 kts | 122° |
| 2026-05-04 23:28 | 53.62913 | 10.00159 | 48 ft | 0 kts | 122° |
| 2026-05-04 23:28 | 53.62908 | 10.00171 | 49 ft | 4 kts | 122° |
| 2026-05-04 23:28 | 53.62899 | 10.00196 | 49 ft | 3 kts | 123° |
| 2026-05-04 23:29 | 53.62895 | 10.00207 | 50 ft | 0 kts | 123° |